LTAT/MLX METAR and TAF weather

Enter ICAO airport designator
Station Type Date Time Source
LTAT METAR 2019/09/21 21:20 UTC NOAA

LTAT 212120Z 31019KT CAVOK 13/M02 Q1019 NOSIG


Station Type Date Time Source
LTAT Decoded METAR 2019/09/21 21:20 UTC NOAA

Malatya / Erhac, Turkey (LTAT) 38-26N 038-05E 849M
Sep 21, 2019 - 05:20 PM EDT / 2019.09.21 2120 UTC
Wind: from the NW (310 degrees) at 22 MPH (19 KT):0
Visibility: greater than 7 mile(s):0
Temperature: 55 F (13 C)
Dew Point: 28 F (-2 C)
Relative Humidity: 35%
Pressure (altimeter): 30.09 in. Hg (1019 hPa)
ob: LTAT 212120Z 31019KT CAVOK 13/M02 Q1019 NOSIG
cycle: 21

Station Type Date Time Source
LTAT TAF 2019/09/21 18:03 UTC NOAA

TAF LTAT 211640Z 2118/2218 32018KT CAVOK
BECMG 2121/2122 21008KT
BECMG 2206/2208 FEW040

Example: see airport list